createdAt,value
2022-10-23T00:01:44.932Z,27.55
2022-10-23T00:04:17.865Z,20.67
2022-10-23T00:06:44.927Z,23.65
2022-10-23T00:09:13.228Z,26.02
2022-10-23T00:11:41.435Z,18.75
2022-10-23T00:14:09.132Z,26.92
2022-10-23T00:16:36.345Z,21.05
2022-10-23T00:19:03.544Z,20.80
2022-10-23T00:21:29.916Z,15.25
2022-10-23T00:23:56.460Z,19.58
2022-10-23T00:26:22.902Z,15.88
2022-10-23T00:28:51.460Z,18.67
2022-10-23T00:31:19.420Z,16.02
2022-10-23T00:33:46.450Z,21.65
2022-10-23T00:36:14.475Z,16.27
2022-10-23T00:38:43.813Z,16.10
2022-10-23T00:41:16.268Z,16.65
2022-10-23T00:43:59.892Z,12.00
2022-10-23T00:46:26.780Z,13.27
2022-10-23T00:48:53.244Z,13.93
2022-10-23T00:51:19.825Z,19.10
2022-10-23T00:54:01.084Z,22.65
2022-10-23T00:56:41.809Z,14.80
2022-10-23T00:59:08.203Z,11.77
2022-10-23T01:01:34.775Z,17.15
2022-10-23T01:04:03.404Z,19.27
2022-10-23T01:06:45.177Z,9.48
2022-10-23T01:09:18.924Z,11.05
2022-10-23T01:12:02.328Z,14.15
2022-10-23T01:14:43.710Z,8.50
2022-10-23T01:17:40.866Z,12.02
2022-10-23T01:20:39.834Z,16.58
2022-10-23T01:23:10.210Z,13.60
2022-10-23T01:25:57.108Z,8.30
2022-10-23T01:28:36.064Z,14.30
2022-10-23T01:31:09.001Z,14.25
2022-10-23T01:33:41.046Z,10.88
2022-10-23T01:36:14.455Z,8.45
2022-10-23T01:38:54.194Z,10.75
2022-10-23T01:41:36.414Z,11.30
2022-10-23T01:44:30.556Z,8.80
2022-10-23T01:46:57.729Z,10.63
2022-10-23T01:49:26.026Z,12.25
2022-10-23T01:52:00.233Z,15.88
2022-10-23T01:54:31.275Z,11.73
2022-10-23T01:56:58.589Z,12.32
2022-10-23T01:59:35.160Z,8.10
2022-10-23T02:02:03.895Z,9.63
2022-10-23T02:04:40.646Z,16.08
2022-10-23T02:07:07.719Z,8.15
2022-10-23T02:09:34.728Z,7.70
2022-10-23T02:12:05.656Z,9.25
2022-10-23T02:14:53.259Z,10.98
2022-10-23T02:17:38.681Z,9.25
2022-10-23T02:20:15.921Z,12.05
2022-10-23T02:23:05.490Z,9.30
2022-10-23T02:25:44.087Z,6.97
2022-10-23T02:28:18.977Z,11.55
2022-10-23T02:30:49.959Z,8.65
2022-10-23T02:33:17.448Z,9.02
2022-10-23T02:35:46.581Z,7.65
2022-10-23T02:38:42.958Z,7.10
2022-10-23T02:41:29.826Z,10.27
2022-10-23T02:44:15.253Z,10.50
2022-10-23T02:46:47.055Z,9.55
2022-10-23T02:49:17.711Z,8.15
2022-10-23T02:52:13.252Z,13.13
2022-10-23T02:54:57.308Z,7.45
2022-10-23T02:57:35.379Z,7.30
2022-10-23T03:00:13.798Z,7.60
2022-10-23T03:02:51.571Z,14.35
2022-10-23T03:05:22.355Z,9.90
2022-10-23T03:07:49.156Z,11.88
2022-10-23T03:10:17.465Z,15.85
2022-10-23T03:12:44.301Z,12.10
2022-10-23T03:15:14.714Z,10.75
2022-10-23T03:17:41.611Z,9.10
2022-10-23T03:20:09.177Z,15.75
2022-10-23T03:22:35.977Z,11.25
2022-10-23T03:25:02.602Z,11.15
2022-10-23T03:27:31.705Z,14.25
2022-10-23T03:30:02.193Z,9.70
2022-10-23T03:32:29.755Z,7.07
2022-10-23T03:34:56.286Z,17.00
2022-10-23T03:37:23.664Z,15.32
2022-10-23T03:39:50.274Z,8.52
2022-10-23T03:42:17.116Z,9.40
2022-10-23T03:44:43.651Z,13.65
2022-10-23T03:47:11.855Z,9.38
2022-10-23T03:49:39.751Z,8.90
2022-10-23T03:52:07.993Z,11.68
2022-10-23T03:54:35.162Z,11.15
2022-10-23T03:57:02.226Z,7.20
2022-10-23T03:59:29.259Z,10.32
2022-10-23T04:01:55.836Z,7.22
2022-10-23T04:04:24.966Z,7.45
2022-10-23T04:06:51.405Z,10.75
2022-10-23T04:09:19.689Z,11.38
2022-10-23T04:11:46.202Z,10.18
2022-10-23T04:14:13.504Z,14.57
2022-10-23T04:16:40.333Z,11.32
2022-10-23T04:19:06.769Z,13.43
2022-10-23T04:21:33.278Z,9.05
2022-10-23T04:24:00.696Z,8.02
2022-10-23T04:26:28.591Z,7.40
2022-10-23T04:28:55.042Z,12.55
2022-10-23T04:31:21.531Z,7.75
2022-10-23T04:33:48.126Z,10.63
2022-10-23T04:36:30.959Z,7.30
2022-10-23T04:39:04.205Z,8.43
2022-10-23T04:41:30.785Z,8.48
2022-10-23T04:43:57.272Z,6.93
2022-10-23T04:46:23.711Z,7.88
2022-10-23T04:48:50.192Z,6.97
2022-10-23T04:51:26.563Z,8.88
2022-10-23T04:54:11.845Z,7.93
2022-10-23T04:56:40.916Z,11.32
2022-10-23T04:59:11.473Z,7.50
2022-10-23T05:01:39.657Z,10.63
2022-10-23T05:04:07.789Z,7.95
2022-10-23T05:06:44.319Z,6.70
2022-10-23T05:09:16.512Z,10.85
2022-10-23T05:11:54.487Z,7.20
2022-10-23T05:14:22.789Z,8.55
2022-10-23T05:16:51.472Z,8.52
2022-10-23T05:19:26.257Z,10.65
2022-10-23T05:21:55.885Z,14.80
2022-10-23T05:24:26.413Z,8.88
2022-10-23T05:26:57.687Z,10.75
2022-10-23T05:29:24.111Z,8.77
2022-10-23T05:31:56.958Z,6.72
2022-10-23T05:34:28.017Z,7.03
2022-10-23T05:36:55.002Z,6.63
2022-10-23T05:39:23.438Z,9.00
2022-10-23T05:41:52.736Z,8.02
2022-10-23T05:44:22.914Z,9.52
2022-10-23T05:47:09.698Z,8.40
2022-10-23T05:49:53.313Z,7.85
2022-10-23T05:52:47.416Z,9.98
2022-10-23T05:55:42.850Z,6.95
2022-10-23T05:58:27.714Z,7.18
2022-10-23T06:01:05.057Z,9.43
2022-10-23T06:03:51.092Z,6.82
2022-10-23T06:06:19.867Z,8.65
2022-10-23T06:08:48.544Z,6.90
2022-10-23T06:11:16.345Z,13.38
2022-10-23T06:13:51.379Z,12.75
2022-10-23T06:16:22.763Z,11.30
2022-10-23T06:18:49.410Z,7.00
2022-10-23T06:21:18.073Z,7.53
2022-10-23T06:23:47.783Z,15.30
2022-10-23T06:26:31.119Z,8.23
2022-10-23T06:29:09.600Z,8.05
2022-10-23T06:31:37.403Z,9.05
2022-10-23T06:34:05.950Z,6.40
2022-10-23T06:36:32.825Z,11.05
2022-10-23T06:39:07.168Z,8.50
2022-10-23T06:41:52.295Z,11.45
2022-10-23T06:44:38.731Z,8.40
2022-10-23T06:47:10.821Z,9.02
2022-10-23T06:49:56.195Z,8.55
2022-10-23T06:52:45.246Z,7.07
2022-10-23T06:55:10.126Z,7.78
2022-10-23T06:57:37.924Z,9.30
2022-10-23T07:00:05.767Z,11.00
2022-10-23T07:02:41.566Z,9.95
2022-10-23T07:05:11.322Z,7.57
2022-10-23T07:07:40.033Z,9.88
2022-10-23T07:10:07.530Z,9.73
2022-10-23T07:12:48.739Z,6.82
2022-10-23T07:15:44.344Z,11.48
2022-10-23T07:18:16.760Z,13.20
2022-10-23T07:21:06.701Z,12.15
2022-10-23T07:23:33.251Z,11.98
2022-10-23T07:26:18.934Z,7.65
2022-10-23T07:28:48.700Z,9.77
2022-10-23T07:31:23.068Z,10.45
2022-10-23T07:34:11.032Z,14.73
2022-10-23T07:36:37.874Z,10.05
2022-10-23T07:39:05.096Z,9.85
2022-10-23T07:41:35.292Z,12.98
2022-10-23T07:44:01.736Z,13.05
2022-10-23T07:46:28.308Z,13.32
2022-10-23T07:48:54.916Z,10.93
2022-10-23T07:51:21.756Z,14.70
2022-10-23T07:53:54.742Z,8.18
2022-10-23T07:57:00.688Z,10.15
2022-10-23T07:59:38.386Z,14.27
2022-10-23T08:02:13.758Z,17.30
2022-10-23T08:04:41.378Z,13.23
2022-10-23T08:07:19.663Z,12.05
2022-10-23T08:09:47.656Z,13.13
2022-10-23T08:12:14.156Z,12.70
2022-10-23T08:14:40.876Z,16.33
2022-10-23T08:17:09.611Z,7.90
2022-10-23T08:20:13.529Z,9.43
2022-10-23T08:22:42.444Z,14.80
2022-10-23T08:25:10.832Z,13.25
2022-10-23T08:27:38.101Z,9.40
2022-10-23T08:30:05.819Z,8.30
2022-10-23T08:32:32.355Z,10.80
2022-10-23T08:35:00.329Z,9.02
2022-10-23T08:37:29.946Z,8.48
2022-10-23T08:39:56.572Z,10.65
2022-10-23T08:42:48.295Z,7.93
2022-10-23T08:45:31.066Z,10.73
2022-10-23T08:48:22.048Z,12.02
2022-10-23T08:51:27.257Z,11.68
2022-10-23T08:54:06.531Z,5.82
2022-10-23T08:56:36.849Z,6.80
2022-10-23T08:59:19.998Z,11.88
2022-10-23T09:02:26.977Z,8.73
2022-10-23T09:04:55.377Z,6.63
2022-10-23T09:07:36.813Z,6.70
2022-10-23T09:10:25.219Z,6.55
2022-10-23T09:12:51.858Z,6.70
2022-10-23T09:15:24.742Z,10.00
2022-10-23T09:17:59.196Z,8.65
2022-10-23T09:20:34.786Z,7.18
2022-10-23T09:23:07.700Z,11.52
2022-10-23T09:25:38.660Z,8.05
2022-10-23T09:28:05.964Z,8.65
2022-10-23T09:30:32.593Z,8.43
2022-10-23T09:33:00.934Z,12.88
2022-10-23T09:35:30.688Z,7.97
2022-10-23T09:37:57.195Z,6.18
2022-10-23T09:40:33.255Z,5.68
2022-10-23T09:43:04.002Z,7.75
2022-10-23T09:45:33.580Z,8.93
2022-10-23T09:48:17.729Z,7.25
2022-10-23T09:51:17.715Z,7.38
2022-10-23T09:53:54.911Z,6.10
2022-10-23T09:56:25.884Z,6.63
2022-10-23T09:59:04.346Z,7.05
2022-10-23T10:01:45.213Z,4.78
2022-10-23T10:04:39.624Z,8.20
2022-10-23T10:07:18.272Z,6.15
2022-10-23T10:09:44.928Z,10.88
2022-10-23T10:12:30.061Z,10.32
2022-10-23T10:15:35.448Z,8.35
2022-10-23T10:18:20.491Z,6.25
2022-10-23T10:21:00.980Z,14.43
2022-10-23T10:23:34.773Z,5.32
2022-10-23T10:26:33.476Z,7.55
2022-10-23T10:29:13.485Z,7.93
2022-10-23T10:31:59.040Z,8.63
2022-10-23T10:34:33.362Z,9.57
2022-10-23T10:37:34.402Z,5.78
2022-10-23T10:40:09.796Z,5.18
2022-10-23T10:43:06.828Z,5.35
2022-10-23T10:45:38.585Z,7.00
2022-10-23T10:51:21.410Z,3.90
2022-10-23T10:53:53.781Z,5.85
2022-10-23T10:56:25.963Z,4.32
2022-10-23T10:59:00.939Z,5.28
2022-10-23T11:01:45.561Z,7.72
2022-10-23T11:04:46.274Z,12.32
2022-10-23T11:07:17.732Z,5.28
2022-10-23T11:09:44.331Z,7.57
2022-10-23T11:12:21.248Z,6.78
2022-10-23T11:14:49.873Z,7.20
2022-10-23T11:17:24.437Z,5.75
2022-10-23T11:20:05.670Z,6.70
2022-10-23T11:23:01.877Z,10.75
2022-10-23T11:25:53.776Z,4.22
2022-10-23T11:28:37.337Z,10.65
2022-10-23T11:31:35.390Z,7.30
2022-10-23T11:34:08.011Z,6.70
2022-10-23T11:36:49.740Z,7.65
2022-10-23T11:39:21.252Z,6.53
2022-10-23T11:42:04.745Z,6.65
2022-10-23T11:44:49.421Z,4.05
2022-10-23T11:47:36.348Z,4.03
2022-10-23T11:50:07.709Z,8.55
2022-10-23T11:53:19.917Z,5.18
2022-10-23T11:56:06.882Z,4.32
2022-10-23T11:58:48.604Z,4.32
2022-10-23T12:04:17.688Z,3.97
2022-10-23T12:06:59.775Z,4.00
2022-10-23T12:09:43.878Z,4.18
2022-10-23T12:12:10.231Z,8.15
2022-10-23T12:14:43.324Z,8.13
2022-10-23T12:17:23.988Z,7.13
2022-10-23T12:20:01.775Z,6.35
2022-10-23T12:22:38.382Z,3.78
2022-10-23T12:25:33.316Z,3.80
2022-10-23T12:28:15.994Z,3.92
2022-10-23T12:33:44.754Z,5.40
2022-10-23T12:36:26.219Z,4.10
2022-10-23T12:38:54.664Z,6.53
2022-10-23T12:41:30.603Z,7.10
2022-10-23T12:44:02.764Z,6.45
2022-10-23T12:46:31.982Z,7.60
2022-10-23T12:48:59.963Z,10.63
2022-10-23T12:51:29.365Z,5.72
2022-10-23T12:53:56.011Z,4.10
2022-10-23T12:56:22.729Z,6.28
2022-10-23T12:58:53.539Z,8.93
2022-10-23T13:01:26.770Z,8.65
2022-10-23T13:04:04.494Z,5.10
2022-10-23T13:06:32.010Z,2.97
2022-10-23T13:08:58.854Z,7.05
2022-10-23T13:11:36.650Z,3.13
2022-10-23T13:14:14.255Z,5.60
2022-10-23T13:16:40.720Z,4.18
2022-10-23T13:19:22.241Z,5.90
2022-10-23T13:21:49.313Z,2.80
2022-10-23T13:24:20.978Z,7.85
2022-10-23T13:26:47.510Z,7.25
2022-10-23T13:29:33.321Z,4.88
2022-10-23T13:32:21.724Z,3.10
2022-10-23T13:35:10.402Z,5.65
2022-10-23T13:37:42.193Z,6.50
2022-10-23T13:40:23.626Z,2.92
2022-10-23T13:42:51.155Z,4.72
2022-10-23T13:45:23.522Z,5.03
2022-10-23T13:47:50.076Z,6.85
2022-10-23T13:50:17.108Z,5.72
2022-10-23T13:52:43.905Z,4.93
2022-10-23T13:55:16.527Z,8.18
2022-10-23T13:57:43.333Z,6.05
2022-10-23T14:00:10.576Z,4.35
2022-10-23T14:02:38.342Z,5.25
2022-10-23T14:05:04.876Z,3.35
2022-10-23T14:07:31.259Z,4.20
2022-10-23T14:09:57.663Z,3.63
2022-10-23T14:12:24.406Z,4.80
2022-10-23T14:14:51.840Z,9.27
2022-10-23T14:17:19.196Z,9.55
2022-10-23T14:19:45.907Z,10.57
2022-10-23T14:22:13.608Z,3.78
2022-10-23T14:24:40.040Z,3.58
2022-10-23T14:27:06.452Z,4.65
2022-10-23T14:29:32.888Z,7.18
2022-10-23T14:31:59.332Z,3.47
2022-10-23T14:34:25.747Z,10.85
2022-10-23T14:37:07.294Z,7.93
2022-10-23T14:39:34.905Z,7.28
2022-10-23T14:42:01.332Z,7.68
2022-10-23T14:44:27.975Z,5.85
2022-10-23T14:46:54.510Z,3.45
2022-10-23T14:49:20.979Z,3.42
2022-10-23T14:51:47.389Z,6.03
2022-10-23T14:54:15.643Z,3.35
2022-10-23T14:56:42.139Z,5.72
2022-10-23T14:59:10.582Z,4.65
2022-10-23T15:01:45.205Z,4.43
2022-10-23T15:04:14.869Z,5.03
2022-10-23T15:06:42.284Z,3.63
2022-10-23T15:09:08.733Z,7.40
2022-10-23T15:11:35.189Z,7.57
2022-10-23T15:14:01.564Z,6.00
2022-10-23T15:16:28.348Z,5.43
2022-10-23T15:18:54.881Z,4.30
2022-10-23T15:21:21.477Z,7.65
2022-10-23T15:23:48.872Z,6.78
2022-10-23T15:26:21.346Z,4.00
2022-10-23T15:28:53.203Z,3.47
2022-10-23T15:31:37.796Z,6.75
2022-10-23T15:34:05.459Z,4.13
2022-10-23T15:36:32.016Z,7.53
2022-10-23T15:38:58.413Z,9.18
2022-10-23T15:41:32.605Z,9.18
2022-10-23T15:44:00.722Z,6.95
2022-10-23T15:46:27.307Z,6.00
2022-10-23T15:48:54.144Z,7.05
2022-10-23T15:51:21.361Z,6.75
2022-10-23T15:53:47.860Z,3.58
2022-10-23T15:56:14.368Z,7.18
2022-10-23T15:58:40.796Z,3.53
2022-10-23T16:01:07.473Z,12.20
2022-10-23T16:03:35.742Z,6.82
2022-10-23T16:06:10.716Z,9.52
2022-10-23T16:08:37.922Z,6.82
2022-10-23T16:11:12.670Z,4.50
2022-10-23T16:13:39.065Z,5.35
2022-10-23T16:16:05.840Z,4.47
2022-10-23T16:18:32.242Z,3.67
2022-10-23T16:20:58.641Z,4.10
2022-10-23T16:23:25.082Z,5.07
2022-10-23T16:25:51.467Z,6.43
2022-10-23T16:28:17.912Z,8.82
2022-10-23T16:30:44.393Z,5.70
2022-10-23T16:33:10.803Z,7.15
2022-10-23T16:35:37.440Z,5.30
2022-10-23T16:38:11.983Z,4.60
2022-10-23T16:40:38.410Z,11.65
2022-10-23T16:43:30.904Z,5.53
2022-10-23T16:46:13.312Z,9.15
2022-10-23T16:48:40.510Z,7.95
2022-10-23T16:51:09.032Z,5.18
2022-10-23T16:53:35.617Z,13.05
2022-10-23T16:56:06.922Z,8.05
2022-10-23T16:58:34.428Z,4.72
2022-10-23T17:01:06.650Z,8.52
2022-10-23T17:03:38.612Z,9.52
2022-10-23T17:06:08.897Z,4.78
2022-10-23T17:08:37.495Z,5.20
2022-10-23T17:11:07.125Z,6.05
2022-10-23T17:13:34.624Z,9.20
2022-10-23T17:16:13.850Z,11.73
2022-10-23T17:18:43.924Z,10.88
2022-10-23T17:21:12.050Z,5.50
2022-10-23T17:23:38.520Z,7.05
2022-10-23T17:26:08.435Z,12.48
2022-10-23T17:28:39.850Z,4.10
2022-10-23T17:31:26.860Z,12.90
2022-10-23T17:33:57.393Z,9.60
2022-10-23T17:36:26.038Z,25.10
2022-10-23T17:38:53.139Z,7.82
2022-10-23T17:41:20.898Z,5.13
2022-10-23T17:43:48.157Z,14.52
2022-10-23T17:46:15.192Z,4.45
2022-10-23T17:48:45.073Z,13.32
2022-10-23T17:51:14.754Z,7.38
2022-10-23T17:53:43.713Z,7.05
2022-10-23T17:56:13.297Z,8.68
2022-10-23T17:58:39.823Z,6.13
2022-10-23T18:01:12.452Z,10.10
2022-10-23T18:03:40.168Z,4.10
2022-10-23T18:06:12.745Z,4.07
2022-10-23T18:08:40.798Z,9.77
2022-10-23T18:11:08.011Z,4.68
2022-10-23T18:13:36.752Z,5.97
2022-10-23T18:16:04.780Z,11.15
2022-10-23T18:18:31.470Z,7.55
2022-10-23T18:20:58.976Z,6.22
2022-10-23T18:23:26.431Z,5.10
2022-10-23T18:25:53.265Z,7.00
2022-10-23T18:28:20.331Z,7.82
2022-10-23T18:30:48.193Z,11.13
2022-10-23T18:33:15.859Z,6.53
2022-10-23T18:35:42.797Z,4.13
2022-10-23T18:38:10.193Z,5.18
2022-10-23T18:40:37.635Z,7.68
2022-10-23T18:43:09.114Z,3.40
2022-10-23T18:45:42.510Z,5.82
2022-10-23T18:48:08.898Z,14.88
2022-10-23T18:50:37.202Z,4.63
2022-10-23T18:53:04.660Z,6.13
2022-10-23T18:55:31.077Z,5.95
2022-10-23T18:57:57.832Z,5.72
2022-10-23T19:00:24.416Z,4.85
2022-10-23T19:02:52.455Z,5.68
2022-10-23T19:05:19.563Z,7.60
2022-10-23T19:07:47.975Z,7.72
2022-10-23T19:10:17.877Z,6.85
2022-10-23T19:12:44.486Z,5.90
2022-10-23T19:15:11.080Z,8.10
2022-10-23T19:17:37.710Z,5.70
2022-10-23T19:20:10.645Z,4.72
2022-10-23T19:22:40.586Z,8.43
2022-10-23T19:25:12.657Z,9.38
2022-10-23T19:27:40.008Z,7.97
2022-10-23T19:30:13.356Z,9.57
2022-10-23T19:32:41.563Z,6.25
2022-10-23T19:35:09.347Z,12.13
2022-10-23T19:37:36.423Z,7.28
2022-10-23T19:40:06.549Z,6.90
2022-10-23T19:42:34.418Z,4.63
2022-10-23T19:45:01.123Z,7.35
2022-10-23T19:47:27.565Z,6.93
2022-10-23T19:49:53.995Z,5.00
2022-10-23T19:52:22.102Z,11.23
2022-10-23T19:54:49.087Z,3.65
2022-10-23T19:57:18.058Z,7.00
2022-10-23T19:59:50.519Z,5.85
2022-10-23T20:02:18.643Z,8.32
2022-10-23T20:04:45.364Z,8.45
2022-10-23T20:07:12.091Z,17.33
2022-10-23T20:09:38.587Z,6.72
2022-10-23T20:12:05.089Z,8.43
2022-10-23T20:14:31.843Z,9.23
2022-10-23T20:16:59.761Z,7.93
2022-10-23T20:19:26.388Z,7.35
2022-10-23T20:21:52.843Z,4.97
2022-10-23T20:24:20.624Z,6.53
2022-10-23T20:26:49.891Z,4.75
2022-10-23T20:29:16.436Z,3.47
2022-10-23T20:31:43.434Z,8.98
2022-10-23T20:34:11.121Z,2.70
2022-10-23T20:36:46.410Z,8.20
2022-10-23T20:39:17.676Z,3.38
2022-10-23T20:41:44.976Z,2.25
2022-10-23T20:44:14.444Z,3.50
2022-10-23T20:46:41.656Z,8.30
2022-10-23T20:49:12.975Z,1.95
2022-10-23T20:51:39.489Z,4.78
2022-10-23T20:54:06.205Z,2.33
2022-10-23T20:56:35.152Z,5.50
2022-10-23T20:59:04.534Z,1.85
2022-10-23T21:01:32.778Z,5.00
2022-10-23T21:04:01.242Z,2.80
2022-10-23T21:06:41.028Z,4.93
2022-10-23T21:09:16.613Z,3.22
2022-10-23T21:11:43.030Z,4.95
2022-10-23T21:14:09.471Z,2.22
2022-10-23T21:16:40.682Z,4.25
2022-10-23T21:19:08.760Z,2.70
2022-10-23T21:21:35.483Z,3.25
2022-10-23T21:24:07.452Z,1.63
2022-10-23T21:26:34.495Z,0.98
2022-10-23T21:29:17.325Z,5.70
2022-10-23T21:31:45.362Z,1.00
2022-10-23T21:34:11.949Z,1.25
2022-10-23T21:36:53.902Z,4.10
2022-10-23T21:39:25.109Z,2.08
2022-10-23T21:41:51.575Z,4.60
2022-10-23T21:44:18.031Z,5.07
2022-10-23T21:46:44.517Z,2.88
2022-10-23T21:49:11.720Z,3.17
2022-10-23T21:51:38.885Z,4.95
2022-10-23T21:54:07.912Z,3.05
2022-10-23T21:56:41.819Z,4.05
2022-10-23T21:59:12.700Z,2.97
2022-10-23T22:01:40.688Z,3.50
2022-10-23T22:04:07.293Z,3.25
2022-10-23T22:06:33.735Z,2.88
2022-10-23T22:09:00.260Z,3.10
2022-10-23T22:11:27.441Z,3.38
2022-10-23T22:13:54.286Z,4.10
2022-10-23T22:16:20.832Z,5.78
2022-10-23T22:18:48.044Z,6.63
2022-10-23T22:21:20.127Z,11.48
2022-10-23T22:23:49.341Z,3.67
2022-10-23T22:26:26.305Z,1.55
2022-10-23T22:28:55.816Z,2.90
2022-10-23T22:31:25.707Z,2.15
2022-10-23T22:33:53.230Z,3.00
2022-10-23T22:36:19.711Z,2.22
2022-10-23T22:38:46.418Z,8.15
2022-10-23T22:41:13.321Z,3.80
2022-10-23T22:43:39.998Z,7.85
2022-10-23T22:46:14.756Z,6.95
2022-10-23T22:48:42.027Z,2.75
2022-10-23T22:51:11.231Z,7.65
2022-10-23T22:53:37.611Z,3.58
2022-10-23T22:56:13.412Z,7.80
2022-10-23T22:58:39.995Z,5.15
2022-10-23T23:01:10.528Z,2.97
2022-10-23T23:03:37.819Z,6.43
2022-10-23T23:06:06.058Z,3.65
2022-10-23T23:08:33.597Z,4.38
2022-10-23T23:11:00.187Z,2.53
2022-10-23T23:13:28.192Z,8.30
2022-10-23T23:15:55.253Z,9.60
2022-10-23T23:18:21.915Z,5.20
2022-10-23T23:20:49.018Z,6.07
2022-10-23T23:23:16.281Z,4.60
2022-10-23T23:25:50.253Z,4.25
2022-10-23T23:28:19.441Z,2.72
2022-10-23T23:33:23.560Z,6.70
2022-10-23T23:35:49.975Z,6.45
2022-10-23T23:38:16.356Z,4.22
2022-10-23T23:40:50.878Z,3.33
2022-10-23T23:43:17.806Z,4.18
2022-10-23T23:45:44.333Z,2.95
2022-10-23T23:48:10.875Z,2.95
2022-10-23T23:50:37.316Z,4.15
2022-10-23T23:53:03.976Z,6.70
2022-10-23T23:55:30.457Z,8.38
2022-10-23T23:57:56.975Z,4.18
